createdAt,value
2023-05-08T00:02:19.013Z,80.15
2023-05-08T00:04:47.129Z,80.22
2023-05-08T00:07:15.254Z,80.34
2023-05-08T00:09:43.227Z,80.55
2023-05-08T00:12:11.298Z,81.01
2023-05-08T00:14:39.200Z,81.18
2023-05-08T00:17:07.271Z,81.60
2023-05-08T00:19:35.390Z,81.82
2023-05-08T00:22:03.372Z,82.30
2023-05-08T00:24:31.335Z,82.19
2023-05-08T00:26:59.363Z,82.30
2023-05-08T00:29:27.670Z,81.99
2023-05-08T00:31:56.417Z,82.21
2023-05-08T00:34:24.538Z,82.67
2023-05-08T00:36:53.016Z,82.81
2023-05-08T00:39:21.086Z,82.16
2023-05-08T00:41:49.032Z,82.25
2023-05-08T00:44:17.029Z,82.12
2023-05-08T00:46:46.823Z,82.07
2023-05-08T00:49:16.245Z,82.07
2023-05-08T00:51:46.468Z,82.01
2023-05-08T00:54:15.159Z,82.62
2023-05-08T00:56:44.145Z,82.87
2023-05-08T00:59:14.644Z,82.91
2023-05-08T01:01:44.269Z,82.89
2023-05-08T01:04:12.317Z,82.72
2023-05-08T01:06:40.328Z,82.47
2023-05-08T01:09:08.203Z,82.36
2023-05-08T01:11:52.773Z,82.08
2023-05-08T01:14:30.040Z,81.95
2023-05-08T01:17:20.129Z,81.66
2023-05-08T01:19:48.099Z,81.43
2023-05-08T01:22:25.292Z,81.18
2023-05-08T01:24:59.196Z,81.77
2023-05-08T01:27:40.784Z,81.92
2023-05-08T01:30:14.232Z,82.45
2023-05-08T01:32:46.981Z,82.77
2023-05-08T01:35:21.498Z,82.97
2023-05-08T01:38:10.980Z,83.22
2023-05-08T01:40:53.936Z,83.21
2023-05-08T01:43:57.171Z,82.91
2023-05-08T01:46:28.529Z,82.71
2023-05-08T01:49:10.907Z,82.65
2023-05-08T01:51:46.508Z,82.30
2023-05-08T01:54:26.943Z,82.43
2023-05-08T01:56:58.151Z,82.62
2023-05-08T01:59:28.326Z,82.75
2023-05-08T02:01:58.878Z,83.41
2023-05-08T02:04:28.698Z,83.33
2023-05-08T02:06:59.468Z,83.44
2023-05-08T02:09:29.715Z,83.35
2023-05-08T02:12:00.909Z,83.52
2023-05-08T02:14:32.091Z,83.71
2023-05-08T02:17:02.627Z,83.94
2023-05-08T02:19:33.606Z,83.97
2023-05-08T02:22:02.764Z,83.51
2023-05-08T02:24:34.422Z,83.37
2023-05-08T02:27:02.752Z,83.44
2023-05-08T02:29:31.795Z,83.72
2023-05-08T02:32:02.712Z,83.57
2023-05-08T02:34:31.936Z,83.46
2023-05-08T02:37:01.415Z,83.73
2023-05-08T02:39:32.056Z,84.33
2023-05-08T02:42:00.902Z,84.38
2023-05-08T02:44:30.822Z,84.82
2023-05-08T02:47:12.559Z,84.66
2023-05-08T02:49:53.637Z,84.58
2023-05-08T02:52:29.717Z,84.50
2023-05-08T02:55:00.750Z,84.69
2023-05-08T02:57:39.973Z,84.78
2023-05-08T03:00:32.928Z,84.57
2023-05-08T03:03:34.298Z,84.75
2023-05-08T03:06:09.005Z,85.19
2023-05-08T03:08:38.404Z,85.10
2023-05-08T03:11:15.292Z,84.70
2023-05-08T03:13:46.123Z,84.22
2023-05-08T03:16:22.260Z,83.58
2023-05-08T03:18:55.055Z,83.23
2023-05-08T03:21:26.937Z,82.95
2023-05-08T03:23:57.399Z,83.65
2023-05-08T03:26:26.574Z,83.51
2023-05-08T03:28:56.580Z,84.32
2023-05-08T03:31:32.256Z,84.36
2023-05-08T03:34:01.210Z,84.07
2023-05-08T03:36:30.901Z,84.16
2023-05-08T03:39:00.525Z,84.27
2023-05-08T03:41:29.444Z,84.08
2023-05-08T03:43:58.818Z,84.04
2023-05-08T03:46:26.903Z,83.79
2023-05-08T03:48:55.694Z,83.10
2023-05-08T03:51:24.295Z,82.84
2023-05-08T03:53:52.621Z,83.14
2023-05-08T03:56:21.130Z,83.24
2023-05-08T03:59:39.600Z,82.92
2023-05-08T04:02:28.657Z,82.95
2023-05-08T04:05:10.861Z,82.32
2023-05-08T04:07:47.740Z,82.03
2023-05-08T04:10:37.837Z,82.07
2023-05-08T04:13:05.970Z,82.36
2023-05-08T04:15:48.811Z,82.05
2023-05-08T04:18:22.732Z,82.13
2023-05-08T04:20:54.688Z,82.30
2023-05-08T04:23:23.890Z,82.10
2023-05-08T04:25:53.902Z,81.85
2023-05-08T04:28:23.003Z,82.01
2023-05-08T04:30:52.079Z,82.12
2023-05-08T04:33:20.123Z,82.02
2023-05-08T04:35:49.030Z,82.33
2023-05-08T04:38:17.447Z,82.07
2023-05-08T04:40:45.751Z,81.55
2023-05-08T04:43:13.931Z,81.57
2023-05-08T04:45:42.577Z,81.62
2023-05-08T04:48:10.858Z,81.97
2023-05-08T04:50:39.028Z,82.47
2023-05-08T04:53:07.098Z,82.42
2023-05-08T04:55:36.089Z,82.21
2023-05-08T04:58:04.234Z,81.91
2023-05-08T05:00:32.353Z,81.82
2023-05-08T05:03:00.690Z,81.47
2023-05-08T05:05:28.784Z,81.58
2023-05-08T05:07:57.269Z,81.39
2023-05-08T05:10:25.910Z,81.57
2023-05-08T05:12:54.277Z,81.52
2023-05-08T05:15:23.015Z,81.02
2023-05-08T05:17:51.005Z,80.65
2023-05-08T05:20:19.426Z,80.60
2023-05-08T05:22:47.604Z,81.03
2023-05-08T05:25:16.145Z,80.41
2023-05-08T05:27:44.704Z,80.00
2023-05-08T05:30:13.623Z,79.38
2023-05-08T05:32:42.476Z,79.57
2023-05-08T05:35:12.002Z,79.17
2023-05-08T05:37:40.684Z,78.41
2023-05-08T05:40:09.647Z,77.76
2023-05-08T05:42:39.216Z,77.82
2023-05-08T05:45:08.183Z,77.31
2023-05-08T05:47:36.481Z,77.16
2023-05-08T05:50:06.223Z,76.78
2023-05-08T05:52:34.336Z,76.09
2023-05-08T05:55:02.399Z,76.04
2023-05-08T05:57:30.487Z,76.15
2023-05-08T05:59:59.748Z,76.44
2023-05-08T06:02:28.448Z,76.26
2023-05-08T06:04:57.152Z,76.34
2023-05-08T06:07:25.042Z,76.50
2023-05-08T06:09:53.400Z,76.56
2023-05-08T06:12:21.671Z,76.10
2023-05-08T06:14:52.220Z,75.38
2023-05-08T06:17:20.687Z,74.44
2023-05-08T06:19:54.288Z,74.00
2023-05-08T06:22:23.478Z,73.81
2023-05-08T06:24:55.833Z,74.02
2023-05-08T06:27:23.958Z,73.81
2023-05-08T06:29:53.507Z,73.24
2023-05-08T06:32:22.493Z,73.34
2023-05-08T06:34:50.776Z,73.26
2023-05-08T06:37:18.883Z,72.95
2023-05-08T06:39:48.940Z,72.50
2023-05-08T06:42:18.610Z,72.42
2023-05-08T06:44:47.358Z,72.62
2023-05-08T06:47:15.678Z,72.58
2023-05-08T06:49:43.738Z,72.22
2023-05-08T06:52:11.813Z,71.84
2023-05-08T06:54:41.327Z,72.32
2023-05-08T06:57:09.600Z,72.11
2023-05-08T06:59:38.429Z,71.86
2023-05-08T07:02:06.903Z,71.61
2023-05-08T07:04:35.706Z,71.42
2023-05-08T07:07:03.834Z,71.33
2023-05-08T07:09:31.950Z,70.91
2023-05-08T07:12:00.278Z,70.28
2023-05-08T07:14:28.778Z,69.83
2023-05-08T07:16:56.952Z,69.31
2023-05-08T07:19:25.361Z,68.89
2023-05-08T07:21:53.531Z,69.03
2023-05-08T07:24:21.425Z,69.46
2023-05-08T07:26:49.637Z,68.91
2023-05-08T07:29:17.497Z,67.56
2023-05-08T07:31:46.644Z,66.30
2023-05-08T07:34:15.500Z,67.44
2023-05-08T07:36:43.763Z,67.61
2023-05-08T07:39:11.839Z,67.27
2023-05-08T07:41:41.124Z,66.79
2023-05-08T07:44:09.664Z,67.16
2023-05-08T07:46:38.072Z,67.33
2023-05-08T07:49:06.494Z,66.55
2023-05-08T07:51:34.645Z,65.59
2023-05-08T07:54:02.825Z,65.71
2023-05-08T07:56:31.403Z,65.74
2023-05-08T07:58:59.490Z,66.07
2023-05-08T08:01:27.645Z,65.72
2023-05-08T08:03:56.320Z,64.94
2023-05-08T08:06:24.279Z,64.43
2023-05-08T08:08:52.385Z,63.82
2023-05-08T08:11:20.474Z,64.46
2023-05-08T08:13:48.530Z,63.78
2023-05-08T08:16:16.797Z,62.69
2023-05-08T08:18:45.085Z,62.38
2023-05-08T08:21:13.157Z,63.46
2023-05-08T08:23:41.359Z,64.20
2023-05-08T08:26:09.291Z,63.80
2023-05-08T08:28:37.773Z,61.60
2023-05-08T08:31:06.102Z,61.76
2023-05-08T08:33:34.220Z,61.94
2023-05-08T08:36:02.296Z,61.12
2023-05-08T08:38:30.488Z,60.41
2023-05-08T08:40:58.514Z,59.43
2023-05-08T08:43:27.128Z,58.96
2023-05-08T08:45:55.357Z,58.63
2023-05-08T08:48:28.696Z,58.86
2023-05-08T08:51:03.718Z,58.75
2023-05-08T08:53:37.959Z,56.85
2023-05-08T08:56:09.528Z,55.19
2023-05-08T08:58:48.021Z,55.92
2023-05-08T09:01:18.459Z,55.67
2023-05-08T09:03:49.040Z,56.44
2023-05-08T09:06:19.721Z,56.51
2023-05-08T09:08:48.670Z,54.74
2023-05-08T09:11:16.666Z,54.88
2023-05-08T09:13:44.625Z,53.85
2023-05-08T09:16:12.709Z,53.38
2023-05-08T09:18:41.286Z,53.76
2023-05-08T09:21:09.894Z,54.39
2023-05-08T09:23:38.254Z,54.15
2023-05-08T09:26:06.433Z,54.14
2023-05-08T09:28:34.505Z,53.64
2023-05-08T09:31:02.685Z,53.91
2023-05-08T09:33:30.821Z,53.63
2023-05-08T09:35:58.784Z,53.07
2023-05-08T09:38:36.179Z,52.20
2023-05-08T09:41:08.886Z,49.96
2023-05-08T09:43:38.299Z,49.81
2023-05-08T09:46:26.993Z,49.73
2023-05-08T09:48:58.260Z,49.44
2023-05-08T09:51:28.275Z,49.92
2023-05-08T09:53:59.052Z,49.46
2023-05-08T09:56:34.597Z,49.11
2023-05-08T09:59:04.691Z,48.05
2023-05-08T10:01:35.868Z,47.66
2023-05-08T10:04:06.188Z,46.85
2023-05-08T10:06:36.595Z,47.13
2023-05-08T10:09:09.674Z,46.70
2023-05-08T10:11:41.662Z,46.63
2023-05-08T10:14:09.990Z,46.05
2023-05-08T10:16:46.266Z,45.41
2023-05-08T10:19:19.192Z,45.30
2023-05-08T10:21:50.060Z,45.57
2023-05-08T10:24:20.593Z,45.52
2023-05-08T10:27:07.401Z,45.16
2023-05-08T10:29:45.132Z,45.53
2023-05-08T10:32:20.413Z,45.40
2023-05-08T10:35:00.081Z,44.93
2023-05-08T10:37:30.388Z,44.45
2023-05-08T10:39:58.815Z,44.91
2023-05-08T10:42:28.011Z,44.00
2023-05-08T10:44:56.604Z,43.72
2023-05-08T10:47:49.705Z,43.71
2023-05-08T10:50:17.864Z,42.18
2023-05-08T10:53:05.705Z,41.69
2023-05-08T10:55:39.962Z,41.80
2023-05-08T10:58:28.522Z,41.40
2023-05-08T11:01:07.885Z,40.89
2023-05-08T11:03:42.947Z,40.15
2023-05-08T11:06:11.842Z,39.33
2023-05-08T11:08:48.705Z,39.26
2023-05-08T11:11:33.605Z,39.83
2023-05-08T11:14:08.040Z,38.98
2023-05-08T11:17:01.832Z,39.28
2023-05-08T11:19:29.955Z,38.56
2023-05-08T11:22:23.526Z,39.08
2023-05-08T11:25:10.345Z,38.39
2023-05-08T11:27:48.385Z,39.21
2023-05-08T11:30:36.541Z,38.07
2023-05-08T11:33:14.730Z,37.58
2023-05-08T11:35:56.423Z,37.76
2023-05-08T11:38:36.520Z,37.89
2023-05-08T11:41:24.665Z,38.05
2023-05-08T11:43:55.503Z,37.59
2023-05-08T11:46:23.736Z,38.20
2023-05-08T11:49:00.394Z,38.41
2023-05-08T11:51:33.153Z,38.13
2023-05-08T11:54:01.727Z,37.93
2023-05-08T11:56:31.440Z,37.21
2023-05-08T11:59:04.561Z,36.29
2023-05-08T12:01:33.227Z,37.11
2023-05-08T12:04:06.418Z,37.40
2023-05-08T12:06:36.018Z,36.75
2023-05-08T12:09:10.543Z,36.10
2023-05-08T12:11:39.392Z,36.10
2023-05-08T12:14:07.597Z,36.49
2023-05-08T12:16:38.803Z,36.41
2023-05-08T12:19:12.240Z,36.24
2023-05-08T12:21:48.105Z,36.32
2023-05-08T12:24:22.609Z,35.68
2023-05-08T12:26:54.871Z,35.68
2023-05-08T12:29:23.716Z,35.91
2023-05-08T12:31:52.823Z,35.46
2023-05-08T12:34:21.764Z,35.71
2023-05-08T12:37:01.174Z,35.06
2023-05-08T12:39:29.291Z,35.16
2023-05-08T12:41:57.982Z,35.21
2023-05-08T12:44:28.374Z,35.51
2023-05-08T12:46:57.591Z,34.89
2023-05-08T12:49:31.094Z,35.07
2023-05-08T12:52:02.861Z,35.23
2023-05-08T12:54:35.023Z,35.10
2023-05-08T12:57:10.102Z,35.41
2023-05-08T12:59:38.260Z,35.28
2023-05-08T13:02:16.927Z,35.55
2023-05-08T13:04:46.742Z,35.74
2023-05-08T13:07:15.157Z,35.93
2023-05-08T13:09:57.377Z,35.83
2023-05-08T13:12:25.925Z,36.04
2023-05-08T13:14:53.956Z,36.32
2023-05-08T13:17:22.071Z,36.58
2023-05-08T13:19:50.194Z,36.62
2023-05-08T13:22:18.111Z,37.16
2023-05-08T13:24:46.498Z,37.13
2023-05-08T13:27:14.883Z,37.23
2023-05-08T13:29:42.941Z,37.46
2023-05-08T13:32:11.185Z,37.53
2023-05-08T13:34:44.300Z,37.88
2023-05-08T13:37:18.184Z,40.19
2023-05-08T13:39:46.831Z,44.85
2023-05-08T13:42:14.788Z,46.40
2023-05-08T13:44:43.876Z,48.41
2023-05-08T13:47:12.033Z,48.93
2023-05-08T13:49:40.110Z,47.92
2023-05-08T13:52:08.128Z,48.59
2023-05-08T13:54:36.250Z,49.20
2023-05-08T13:57:04.449Z,49.50
2023-05-08T13:59:32.803Z,49.86
2023-05-08T14:02:01.202Z,51.43
2023-05-08T14:04:29.314Z,51.88
2023-05-08T14:06:57.436Z,52.21
2023-05-08T14:09:25.437Z,53.26
2023-05-08T14:11:53.380Z,53.46
2023-05-08T14:14:21.565Z,54.43
2023-05-08T14:16:51.090Z,55.33
2023-05-08T14:19:19.334Z,56.25
2023-05-08T14:21:47.338Z,57.30
2023-05-08T14:24:15.470Z,57.28
2023-05-08T14:26:44.841Z,56.84
2023-05-08T14:29:13.253Z,56.83
2023-05-08T14:31:41.589Z,57.30
2023-05-08T14:34:09.908Z,57.23
2023-05-08T14:36:38.080Z,56.98
2023-05-08T14:39:06.368Z,57.33
2023-05-08T14:41:35.048Z,58.21
2023-05-08T14:44:03.123Z,58.20
2023-05-08T14:46:31.407Z,58.57
2023-05-08T14:48:59.585Z,59.06
2023-05-08T14:51:28.351Z,58.66
2023-05-08T14:53:57.248Z,58.99
2023-05-08T14:56:26.381Z,59.12
2023-05-08T14:58:55.556Z,58.72
2023-05-08T15:01:23.624Z,60.65
2023-05-08T15:03:53.444Z,60.06
2023-05-08T15:06:23.491Z,58.83
2023-05-08T15:08:52.126Z,59.50
2023-05-08T15:11:20.197Z,60.02
2023-05-08T15:13:48.306Z,60.79
2023-05-08T15:16:16.568Z,60.92
2023-05-08T15:18:44.832Z,61.22
2023-05-08T15:21:12.903Z,61.65
2023-05-08T15:23:40.970Z,61.75
2023-05-08T15:26:09.037Z,60.32
2023-05-08T15:28:37.314Z,58.90
2023-05-08T15:31:05.405Z,58.61
2023-05-08T15:33:33.563Z,59.13
2023-05-08T15:36:01.484Z,58.76
2023-05-08T15:38:29.368Z,58.43
2023-05-08T15:40:57.366Z,58.82
2023-05-08T15:43:25.392Z,59.44
2023-05-08T15:45:53.336Z,59.29
2023-05-08T15:48:21.595Z,60.52
2023-05-08T15:50:49.567Z,61.38
2023-05-08T15:53:17.470Z,60.19
2023-05-08T15:55:45.511Z,60.48
2023-05-08T15:58:13.665Z,60.30
2023-05-08T16:00:45.280Z,60.49
2023-05-08T16:03:13.828Z,61.51
2023-05-08T16:05:42.305Z,61.14
2023-05-08T16:08:12.988Z,60.84
2023-05-08T16:10:41.988Z,60.76
2023-05-08T16:13:10.232Z,60.54
2023-05-08T16:15:38.661Z,60.90
2023-05-08T16:18:07.184Z,61.69
2023-05-08T16:20:36.204Z,61.74
2023-05-08T16:23:04.563Z,62.04
2023-05-08T16:25:32.709Z,61.86
2023-05-08T16:28:00.929Z,63.10
2023-05-08T16:30:29.279Z,63.10
2023-05-08T16:32:57.607Z,63.72
2023-05-08T16:35:26.129Z,63.06
2023-05-08T16:37:54.120Z,63.27
2023-05-08T16:40:22.253Z,62.98
2023-05-08T16:42:51.110Z,62.59
2023-05-08T16:45:19.194Z,62.00
2023-05-08T16:47:47.224Z,62.48
2023-05-08T16:50:15.574Z,63.37
2023-05-08T16:52:43.647Z,63.79
2023-05-08T16:55:11.917Z,61.56
2023-05-08T16:57:40.062Z,61.68
2023-05-08T17:00:08.787Z,60.26
2023-05-08T17:02:37.083Z,61.42
2023-05-08T17:05:05.953Z,60.73
2023-05-08T17:07:33.912Z,60.26
2023-05-08T17:10:01.963Z,60.50
2023-05-08T17:12:30.154Z,60.87
2023-05-08T17:14:58.140Z,60.62
2023-05-08T17:17:26.312Z,61.35
2023-05-08T17:19:54.294Z,61.95
2023-05-08T17:22:22.199Z,62.64
2023-05-08T17:24:50.345Z,62.25
2023-05-08T17:27:19.489Z,62.92
2023-05-08T17:29:47.504Z,63.39
2023-05-08T17:32:15.607Z,63.11
2023-05-08T17:34:43.837Z,63.18
2023-05-08T17:37:11.978Z,63.21
2023-05-08T17:39:40.192Z,63.02
2023-05-08T17:42:08.259Z,62.76
2023-05-08T17:44:37.034Z,62.24
2023-05-08T17:47:05.193Z,62.00
2023-05-08T17:49:33.284Z,62.14
2023-05-08T17:52:01.352Z,61.52
2023-05-08T17:54:29.429Z,61.47
2023-05-08T17:56:58.609Z,61.64
2023-05-08T17:59:26.794Z,60.98
2023-05-08T18:01:54.776Z,60.90
2023-05-08T18:04:22.736Z,60.45
2023-05-08T18:06:51.817Z,60.28
2023-05-08T18:09:20.822Z,60.28
2023-05-08T18:11:48.908Z,59.72
2023-05-08T18:14:17.167Z,60.56
2023-05-08T18:16:45.350Z,61.60
2023-05-08T18:19:13.544Z,62.29
2023-05-08T18:21:41.698Z,62.63
2023-05-08T18:24:09.770Z,63.39
2023-05-08T18:26:38.357Z,63.47
2023-05-08T18:29:06.736Z,63.69
2023-05-08T18:31:34.755Z,63.49
2023-05-08T18:34:02.975Z,64.04
2023-05-08T18:36:32.073Z,64.26
2023-05-08T18:39:00.271Z,64.47
2023-05-08T18:41:28.426Z,64.86
2023-05-08T18:43:56.498Z,65.50
2023-05-08T18:46:24.614Z,65.66
2023-05-08T18:48:52.738Z,65.87
2023-05-08T18:51:20.916Z,65.77
2023-05-08T18:53:48.963Z,66.10
2023-05-08T18:56:17.162Z,66.56
2023-05-08T18:58:47.975Z,65.87
2023-05-08T19:01:20.149Z,66.09
2023-05-08T19:03:48.538Z,66.68
2023-05-08T19:06:17.127Z,66.75
2023-05-08T19:08:45.199Z,66.27
2023-05-08T19:11:13.298Z,66.70
2023-05-08T19:13:41.553Z,67.47
2023-05-08T19:16:09.598Z,67.28
2023-05-08T19:18:37.741Z,67.25
2023-05-08T19:21:06.794Z,67.20
2023-05-08T19:23:34.808Z,67.36
2023-05-08T19:26:02.753Z,67.39
2023-05-08T19:28:30.896Z,67.13
2023-05-08T19:30:59.028Z,67.18
2023-05-08T19:33:26.940Z,67.17
2023-05-08T19:35:54.908Z,67.02
2023-05-08T19:38:22.987Z,67.66
2023-05-08T19:40:57.076Z,67.80
2023-05-08T19:43:26.788Z,67.69
2023-05-08T19:45:56.188Z,67.70
2023-05-08T19:48:24.561Z,67.79
2023-05-08T19:50:54.871Z,68.13
2023-05-08T19:53:24.131Z,68.37
2023-05-08T19:55:52.110Z,68.29
2023-05-08T19:58:20.150Z,68.45
2023-05-08T20:03:20.050Z,68.99
2023-05-08T20:05:48.339Z,68.54
2023-05-08T20:08:16.849Z,69.05
2023-05-08T20:10:49.082Z,69.29
2023-05-08T20:13:18.396Z,70.03
2023-05-08T20:15:46.970Z,69.71
2023-05-08T20:18:15.267Z,69.38
2023-05-08T20:20:45.199Z,69.63
2023-05-08T20:23:13.375Z,69.33
2023-05-08T20:25:46.146Z,68.65
2023-05-08T20:28:22.404Z,69.15
2023-05-08T20:30:51.194Z,70.75
2023-05-08T20:33:19.486Z,71.68
2023-05-08T20:35:47.709Z,72.05
2023-05-08T20:38:16.329Z,71.81
2023-05-08T20:40:44.724Z,71.62
2023-05-08T20:43:12.985Z,71.62
2023-05-08T20:45:41.102Z,71.80
2023-05-08T20:48:09.216Z,71.64
2023-05-08T20:50:37.207Z,71.59
2023-05-08T20:53:05.279Z,71.68
2023-05-08T20:55:33.493Z,71.99
2023-05-08T20:58:03.738Z,71.87
2023-05-08T21:00:31.915Z,71.62
2023-05-08T21:03:00.047Z,71.63
2023-05-08T21:05:28.408Z,71.96
2023-05-08T21:08:00.225Z,71.86
2023-05-08T21:10:30.785Z,71.48
2023-05-08T21:12:59.203Z,71.25
2023-05-08T21:15:27.559Z,71.41
2023-05-08T21:17:57.095Z,71.02
2023-05-08T21:20:25.331Z,71.03
2023-05-08T21:22:53.231Z,71.26
2023-05-08T21:25:22.113Z,71.23
2023-05-08T21:27:50.156Z,71.41
2023-05-08T21:30:18.314Z,71.62
2023-05-08T21:32:46.761Z,71.87
2023-05-08T21:35:16.014Z,72.09
2023-05-08T21:37:44.561Z,72.20
2023-05-08T21:40:12.784Z,72.40
2023-05-08T21:42:41.257Z,72.16
2023-05-08T21:45:10.052Z,72.40
2023-05-08T21:47:38.148Z,72.43
2023-05-08T21:50:07.268Z,72.47
2023-05-08T21:52:35.601Z,72.49
2023-05-08T21:55:08.576Z,72.42
2023-05-08T21:57:36.742Z,72.32
2023-05-08T22:00:07.113Z,72.11
2023-05-08T22:02:35.849Z,72.10
2023-05-08T22:05:04.243Z,72.34
2023-05-08T22:07:32.213Z,72.97
2023-05-08T22:10:00.288Z,73.30
2023-05-08T22:12:28.278Z,73.32
2023-05-08T22:14:56.221Z,73.79
2023-05-08T22:17:24.232Z,73.96
2023-05-08T22:19:52.159Z,73.52
2023-05-08T22:22:20.131Z,73.91
2023-05-08T22:24:48.154Z,74.24
2023-05-08T22:27:16.219Z,74.43
2023-05-08T22:29:44.229Z,74.65
2023-05-08T22:32:14.083Z,74.41
2023-05-08T22:34:42.234Z,74.25
2023-05-08T22:37:10.189Z,74.40
2023-05-08T22:39:38.169Z,73.97
2023-05-08T22:42:06.396Z,74.05
2023-05-08T22:44:35.363Z,74.16
2023-05-08T22:47:03.572Z,74.58
2023-05-08T22:49:32.100Z,74.94
2023-05-08T22:52:00.266Z,74.72
2023-05-08T22:54:28.239Z,74.66
2023-05-08T22:56:56.307Z,74.49
2023-05-08T22:59:25.832Z,74.71
2023-05-08T23:01:53.896Z,74.70
2023-05-08T23:04:22.472Z,74.56
2023-05-08T23:06:50.617Z,74.47
2023-05-08T23:09:18.733Z,74.52
2023-05-08T23:11:47.608Z,74.27
2023-05-08T23:14:16.193Z,74.45
2023-05-08T23:16:44.311Z,74.67
2023-05-08T23:19:12.331Z,74.28
2023-05-08T23:21:40.402Z,73.96
2023-05-08T23:24:08.399Z,73.70
2023-05-08T23:26:36.451Z,73.88
2023-05-08T23:29:04.403Z,73.97
2023-05-08T23:31:32.534Z,73.77
2023-05-08T23:34:00.777Z,73.85
2023-05-08T23:36:28.687Z,73.41
2023-05-08T23:38:56.701Z,73.23
2023-05-08T23:41:26.185Z,73.15
2023-05-08T23:43:54.896Z,73.26
2023-05-08T23:46:22.881Z,73.48
2023-05-08T23:48:50.861Z,73.37
2023-05-08T23:51:18.870Z,73.44
2023-05-08T23:53:47.180Z,73.21
2023-05-08T23:56:15.112Z,73.18
2023-05-08T23:58:43.121Z,73.15
